Time;durP1;ratioP1;P1;durP2;ratioP2;P2;SDS_P1;SDS_P2;PMS_P1;PMS_P2;Temp;Humidity;BMP_temperature;BMP_pressure;BME280_temperature;BME280_humidity;BME280_pressure;Samples;Min_cycle;Max_cycle;Signal;HPM_P1;HPM_P2
2022/09/10 00:00:13;;;;;;;0.20;0.20;;;15.70;99.90;;;;;;5074501;28;20186;-81
2022/09/10 00:02:39;;;;;;;0.20;0.20;;;15.90;99.90;;;;;;5074586;28;20356;-81
2022/09/10 00:05:08;;;;;;;0.20;0.20;;;16.00;99.90;;;;;;5077649;28;20287;-81
2022/09/10 00:07:34;;;;;;;0.10;0.10;;;16.20;99.90;;;;;;5074948;28;20203;-81
2022/09/10 00:10:00;;;;;;;0.20;0.20;;;16.20;99.90;;;;;;5076592;28;20183;-80
2022/09/10 00:12:26;;;;;;;0.20;0.20;;;15.90;99.90;;;;;;5075482;28;20590;-80
2022/09/10 00:14:52;;;;;;;0.20;0.20;;;16.00;99.90;;;;;;5074323;28;20183;-81
2022/09/10 00:17:19;;;;;;;0.73;0.53;;;16.10;99.90;;;;;;5073383;28;20195;-80
2022/09/10 00:19:46;;;;;;;0.30;0.30;;;16.20;99.90;;;;;;5074789;28;20198;-81
2022/09/10 00:22:12;;;;;;;0.30;0.17;;;16.40;99.90;;;;;;5074677;28;20634;-80
2022/09/10 00:24:38;;;;;;;0.10;0.10;;;16.40;99.90;;;;;;5074558;28;20199;-80
2022/09/10 00:27:06;;;;;;;0.10;0.10;;;16.40;99.90;;;;;;5075850;28;20650;-81
2022/09/10 00:29:33;;;;;;;0.10;0.10;;;16.50;99.90;;;;;;5073851;28;20197;-81
2022/09/10 00:32:00;;;;;;;0.60;0.37;;;16.40;99.90;;;;;;5074243;28;20584;-81
2022/09/10 00:34:27;;;;;;;0.10;0.10;;;16.20;99.90;;;;;;5072097;28;20665;-82
2022/09/10 00:36:54;;;;;;;0.13;0.13;;;16.00;99.90;;;;;;5073322;28;20942;-81
2022/09/10 00:39:20;;;;;;;0.93;0.20;;;15.90;99.90;;;;;;5078730;28;20179;-81
2022/09/10 00:41:47;;;;;;;0.20;0.20;;;15.90;99.90;;;;;;5078886;28;20218;-81
2022/09/10 00:44:39;;;;;;;0.10;0.10;;;15.70;99.90;;;;;;5076671;28;20271;-81
2022/09/10 00:47:23;;;;;;;0.10;0.10;;;15.90;99.90;;;;;;5077471;28;20191;-81
2022/09/10 00:50:04;;;;;;;0.23;0.23;;;16.10;99.90;;;;;;5074083;28;20676;-81
2022/09/10 00:52:31;;;;;;;0.30;0.30;;;15.90;99.90;;;;;;5074644;28;20200;-80
2022/09/10 00:54:59;;;;;;;0.20;0.20;;;15.80;99.90;;;;;;5074237;28;20222;-81
2022/09/10 00:57:27;;;;;;;0.10;0.10;;;16.00;99.90;;;;;;5074992;28;20311;-81
2022/09/10 01:00:01;;;;;;;0.20;0.20;;;16.00;99.90;;;;;;5078534;28;20175;-82
2022/09/10 01:02:27;;;;;;;0.20;0.20;;;16.00;99.90;;;;;;5074600;28;20207;-81
2022/09/10 01:04:57;;;;;;;0.20;0.20;;;16.10;99.90;;;;;;5070636;28;20541;-81
2022/09/10 01:07:27;;;;;;;0.17;0.17;;;16.30;99.90;;;;;;5073282;28;21779;-81
2022/09/10 01:10:00;;;;;;;0.30;0.30;;;16.20;99.90;;;;;;5075741;28;20187;-80
2022/09/10 01:12:33;;;;;;;0.10;0.10;;;16.30;99.90;;;;;;5070023;28;20235;-80
2022/09/10 01:15:28;;;;;;;0.17;0.17;;;16.30;99.90;;;;;;5076916;28;20277;-81
2022/09/10 01:18:22;;;;;;;0.10;0.10;;;15.90;99.90;;;;;;5076934;28;20192;-81
2022/09/10 01:21:17;;;;;;;0.13;0.13;;;15.60;99.90;;;;;;5076996;28;20250;-81
2022/09/10 01:24:11;;;;;;;0.10;0.10;;;15.40;99.90;;;;;;5071539;28;20188;-81
2022/09/10 01:27:19;;;;;;;0.20;0.20;;;15.20;99.90;;;;;;5084055;28;20221;-81
2022/09/10 01:30:05;;;;;;;2.13;0.30;;;15.00;99.90;;;;;;5073426;28;20195;-80
2022/09/10 01:33:02;;;;;;;0.10;0.10;;;14.90;99.90;;;;;;5071727;28;20222;-78
2022/09/10 01:35:55;;;;;;;0.10;0.10;;;14.90;99.90;;;;;;5070320;28;20191;-79
2022/09/10 01:38:30;;;;;;;0.23;0.23;;;15.00;99.90;;;;;;5069848;28;20212;-79
2022/09/10 01:41:00;;;;;;;0.10;0.10;;;15.20;99.90;;;;;;5070427;28;20195;-79
2022/09/10 01:43:26;;;;;;;0.10;0.10;;;15.40;99.90;;;;;;5068026;28;20184;-79
2022/09/10 01:46:09;;;;;;;0.03;0.03;;;15.30;99.90;;;;;;5068692;28;20264;-78
2022/09/10 01:48:54;;;;;;;0.20;0.20;;;15.40;99.90;;;;;;5070915;28;20212;-78
2022/09/10 01:51:33;;;;;;;0.30;0.30;;;15.30;99.90;;;;;;5070522;28;20208;-78
2022/09/10 01:54:12;;;;;;;0.10;0.10;;;15.40;99.90;;;;;;5072839;28;20188;-79
2022/09/10 01:57:03;;;;;;;0.20;0.20;;;15.60;99.90;;;;;;5075428;28;20559;-78
2022/09/10 01:59:45;;;;;;;0.40;0.30;;;15.70;99.90;;;;;;5075252;28;20320;-79
2022/09/10 02:02:21;;;;;;;0.40;0.40;;;15.50;99.90;;;;;;5072948;28;20276;-79
2022/09/10 02:04:50;;;;;;;2.10;1.13;;;15.20;99.90;;;;;;5080558;28;20187;-79
2022/09/10 02:07:21;;;;;;;0.20;0.20;;;15.20;99.90;;;;;;5073446;28;20660;-79
2022/09/10 02:09:49;;;;;;;0.10;0.10;;;15.40;99.90;;;;;;5072155;28;20185;-79
2022/09/10 02:12:21;;;;;;;0.20;0.20;;;15.40;99.90;;;;;;5075455;28;20222;-79
2022/09/10 02:14:54;;;;;;;0.30;0.30;;;15.60;99.90;;;;;;5072006;28;20741;-78
2022/09/10 02:17:26;;;;;;;0.90;0.43;;;15.50;99.90;;;;;;5073181;28;20184;-78
2022/09/10 02:19:54;;;;;;;0.20;0.20;;;15.60;99.90;;;;;;5072400;28;20538;-79
2022/09/10 02:22:25;;;;;;;0.10;0.10;;;15.80;99.90;;;;;;5071723;28;20226;-79
2022/09/10 02:24:51;;;;;;;0.10;0.10;;;16.00;99.90;;;;;;5075293;28;20670;-78
2022/09/10 02:27:18;;;;;;;0.10;0.10;;;15.90;99.90;;;;;;5071132;28;20243;-79
2022/09/10 02:29:45;;;;;;;0.10;0.10;;;16.00;99.90;;;;;;5076166;28;20664;-79
2022/09/10 02:32:12;;;;;;;0.20;0.20;;;16.20;99.90;;;;;;5073107;28;20895;-79
2022/09/10 02:34:39;;;;;;;2.53;0.20;;;16.30;99.90;;;;;;5073058;28;20596;-78
2022/09/10 02:37:06;;;;;;;0.10;0.10;;;16.20;99.90;;;;;;5074893;28;20183;-79
2022/09/10 02:39:32;;;;;;;0.20;0.20;;;16.30;99.90;;;;;;5073397;28;20337;-78
2022/09/10 02:42:00;;;;;;;0.20;0.20;;;16.40;99.90;;;;;;5072634;28;20682;-78
2022/09/10 02:44:27;;;;;;;0.70;0.70;;;16.40;99.90;;;;;;5091778;27;20268;-78
2022/09/10 02:46:57;;;;;;;0.60;0.30;;;16.50;99.90;;;;;;5088334;28;20671;-79
2022/09/10 02:49:23;;;;;;;0.10;0.10;;;16.40;99.90;;;;;;5076230;28;20215;-79
2022/09/10 02:51:50;;;;;;;0.30;0.30;;;16.50;99.90;;;;;;5073939;28;20197;-78
2022/09/10 02:54:21;;;;;;;0.20;0.20;;;16.60;99.90;;;;;;5070559;28;20188;-79
2022/09/10 02:56:48;;;;;;;0.30;0.30;;;16.60;99.90;;;;;;5074565;28;20203;-79
2022/09/10 02:59:16;;;;;;;0.10;0.10;;;16.60;99.90;;;;;;5074348;28;20215;-79
2022/09/10 03:01:43;;;;;;;0.20;0.20;;;16.60;99.90;;;;;;5069934;28;20208;-79
2022/09/10 03:04:09;;;;;;;0.23;0.23;;;16.60;99.90;;;;;;5074628;28;20268;-79
2022/09/10 03:06:36;;;;;;;0.10;0.10;;;16.50;99.90;;;;;;5074408;28;20192;-79
2022/09/10 03:09:03;;;;;;;0.10;0.10;;;16.60;99.90;;;;;;5072942;28;20259;-78
2022/09/10 03:11:30;;;;;;;0.20;0.20;;;16.60;99.90;;;;;;5073018;28;20208;-78
2022/09/10 03:13:56;;;;;;;0.20;0.20;;;16.60;99.90;;;;;;5075437;28;20585;-78
2022/09/10 03:16:26;;;;;;;0.20;0.20;;;16.60;99.90;;;;;;5073963;28;20215;-78
2022/09/10 03:18:53;;;;;;;0.10;0.10;;;16.60;99.90;;;;;;5076102;28;20180;-79
2022/09/10 03:21:23;;;;;;;0.10;0.10;;;16.60;99.90;;;;;;5072352;28;20266;-79
2022/09/10 03:23:51;;;;;;;0.10;0.10;;;16.60;99.90;;;;;;5073762;28;20188;-79
2022/09/10 03:26:20;;;;;;;0.13;0.13;;;16.60;99.90;;;;;;5071623;28;20198;-79
2022/09/10 03:28:47;;;;;;;0.30;0.30;;;16.50;99.90;;;;;;5076735;28;20211;-79
2022/09/10 03:31:15;;;;;;;0.20;0.20;;;16.50;99.90;;;;;;5072659;28;20201;-78
2022/09/10 03:33:41;;;;;;;0.97;0.97;;;16.60;99.90;;;;;;5072799;28;20188;-78
2022/09/10 03:36:08;;;;;;;0.20;0.20;;;16.60;99.90;;;;;;5071743;28;20616;-78
2022/09/10 03:38:34;;;;;;;0.20;0.20;;;16.50;99.90;;;;;;5073752;28;20199;-78
2022/09/10 03:41:01;;;;;;;0.30;0.30;;;16.50;99.90;;;;;;5074981;28;20215;-79
2022/09/10 03:43:28;;;;;;;0.10;0.10;;;16.50;99.90;;;;;;5075324;28;20207;-79
2022/09/10 03:45:55;;;;;;;1.30;0.50;;;16.50;99.90;;;;;;5073868;28;20185;-79
2022/09/10 03:48:23;;;;;;;0.30;0.30;;;16.60;99.90;;;;;;5074697;28;20213;-79
2022/09/10 03:50:50;;;;;;;1.63;0.30;;;16.60;99.90;;;;;;5072078;28;22084;-79
2022/09/10 03:53:18;;;;;;;0.10;0.10;;;16.70;99.90;;;;;;5072721;28;20677;-80
2022/09/10 03:55:46;;;;;;;0.10;0.10;;;16.60;99.90;;;;;;5074721;28;20675;-79
2022/09/10 03:58:13;;;;;;;0.37;0.37;;;16.60;99.90;;;;;;5074305;28;20192;-80
2022/09/10 04:00:40;;;;;;;0.10;0.10;;;16.50;99.90;;;;;;5072548;28;20181;-79
2022/09/10 04:03:07;;;;;;;0.23;0.20;;;16.50;99.90;;;;;;5073771;28;20258;-79
2022/09/10 04:05:34;;;;;;;0.30;0.30;;;16.50;99.90;;;;;;5075363;28;20184;-80
2022/09/10 04:08:01;;;;;;;0.13;0.13;;;16.50;99.90;;;;;;5075060;28;20201;-79
2022/09/10 04:10:29;;;;;;;0.20;0.20;;;16.60;99.90;;;;;;5071096;28;20724;-80
2022/09/10 04:12:56;;;;;;;0.37;0.30;;;16.60;99.90;;;;;;5078573;28;20203;-80
2022/09/10 04:15:23;;;;;;;0.20;0.20;;;16.60;99.90;;;;;;5075443;28;20239;-79
2022/09/10 04:17:51;;;;;;;0.80;0.50;;;16.60;99.90;;;;;;5077785;28;20193;-79
2022/09/10 04:20:21;;;;;;;0.17;0.17;;;16.60;99.90;;;;;;5078076;28;20187;-79
2022/09/10 04:22:52;;;;;;;0.13;0.13;;;16.70;99.90;;;;;;5075345;28;20212;-79
2022/09/10 04:25:20;;;;;;;0.20;0.20;;;16.60;99.90;;;;;;5078703;28;20187;-79
2022/09/10 04:27:47;;;;;;;0.33;0.33;;;16.50;99.90;;;;;;5078413;28;20215;-80
2022/09/10 04:30:14;;;;;;;0.17;0.17;;;16.50;99.90;;;;;;5077609;28;20183;-80
2022/09/10 04:32:41;;;;;;;0.17;0.17;;;16.60;99.90;;;;;;5078142;28;20199;-80
2022/09/10 04:35:08;;;;;;;0.73;0.30;;;16.60;99.90;;;;;;5075255;28;20176;-79
2022/09/10 04:37:36;;;;;;;0.53;0.20;;;16.60;99.90;;;;;;5075545;28;20184;-80
2022/09/10 04:40:03;;;;;;;0.20;0.20;;;16.60;99.90;;;;;;5078047;28;20228;-80
2022/09/10 04:42:31;;;;;;;0.30;0.30;;;16.60;99.90;;;;;;5076702;28;20742;-79
2022/09/10 04:44:58;;;;;;;0.10;0.10;;;16.60;99.90;;;;;;5076837;28;20222;-79
2022/09/10 04:47:25;;;;;;;0.57;0.30;;;16.60;99.90;;;;;;5076216;28;20183;-80
2022/09/10 04:49:52;;;;;;;0.40;0.30;;;16.70;99.90;;;;;;5078605;28;20770;-80
2022/09/10 04:52:21;;;;;;;0.20;0.20;;;16.70;99.90;;;;;;5074496;28;20246;-79
2022/09/10 04:54:48;;;;;;;0.50;0.20;;;16.60;99.90;;;;;;5075562;28;20670;-80
2022/09/10 04:57:15;;;;;;;0.30;0.30;;;16.70;99.90;;;;;;5077110;28;20185;-79
2022/09/10 04:59:42;;;;;;;0.37;0.37;;;16.70;99.90;;;;;;5077471;28;20276;-79
2022/09/10 05:02:09;;;;;;;0.30;0.30;;;16.70;99.90;;;;;;5075328;28;20208;-79
2022/09/10 05:04:38;;;;;;;0.30;0.30;;;16.70;99.90;;;;;;5076843;28;20314;-80
2022/09/10 05:07:04;;;;;;;0.40;0.40;;;16.60;99.90;;;;;;5076022;28;20893;-80
2022/09/10 05:09:32;;;;;;;0.10;0.10;;;16.70;99.90;;;;;;5077852;28;20206;-79
2022/09/10 05:11:59;;;;;;;0.20;0.20;;;16.70;99.90;;;;;;5077568;28;20288;-79
2022/09/10 05:14:28;;;;;;;0.20;0.20;;;16.70;99.90;;;;;;5077745;28;20211;-79
2022/09/10 05:16:54;;;;;;;0.20;0.20;;;16.70;99.90;;;;;;5074580;28;20219;-79
2022/09/10 05:19:21;;;;;;;0.30;0.30;;;16.70;99.90;;;;;;5074130;28;20189;-80
2022/09/10 05:21:48;;;;;;;0.63;0.63;;;16.70;99.90;;;;;;5076561;28;20200;-79
2022/09/10 05:24:14;;;;;;;0.57;0.47;;;16.70;99.90;;;;;;5076071;28;20181;-81
2022/09/10 05:26:45;;;;;;;0.20;0.20;;;16.80;99.90;;;;;;5076544;28;20191;-83
2022/09/10 05:29:11;;;;;;;0.10;0.10;;;16.80;99.90;;;;;;5073855;28;20579;-79
2022/09/10 05:31:37;;;;;;;0.30;0.30;;;16.70;99.90;;;;;;5072855;28;20204;-79
2022/09/10 05:34:04;;;;;;;0.20;0.20;;;16.70;99.90;;;;;;5074255;28;20185;-80
2022/09/10 05:36:33;;;;;;;0.80;0.50;;;16.70;99.90;;;;;;5075940;28;20210;-79
2022/09/10 05:39:02;;;;;;;0.30;0.30;;;16.70;99.90;;;;;;5072181;28;20200;-79
2022/09/10 05:41:29;;;;;;;0.20;0.20;;;16.70;99.90;;;;;;5071352;28;20200;-79
2022/09/10 05:43:57;;;;;;;0.20;0.20;;;16.80;99.90;;;;;;5075584;28;20244;-79
2022/09/10 05:46:25;;;;;;;0.20;0.20;;;16.80;99.90;;;;;;5075105;28;20278;-79
2022/09/10 05:48:53;;;;;;;0.17;0.17;;;16.80;99.90;;;;;;5074981;28;20504;-79
2022/09/10 05:51:19;;;;;;;0.30;0.30;;;16.80;99.90;;;;;;5076308;28;20643;-79
2022/09/10 05:53:45;;;;;;;0.30;0.30;;;16.80;99.90;;;;;;5075670;28;20185;-80
2022/09/10 05:56:15;;;;;;;0.40;0.40;;;16.70;99.90;;;;;;5075442;28;20187;-79
2022/09/10 05:58:44;;;;;;;0.30;0.30;;;16.70;99.90;;;;;;5075037;28;20223;-79
2022/09/10 06:01:10;;;;;;;0.27;0.27;;;16.70;99.90;;;;;;5073168;28;20220;-79
2022/09/10 06:03:37;;;;;;;0.30;0.30;;;16.70;99.90;;;;;;5076327;28;21198;-79
2022/09/10 06:06:03;;;;;;;0.20;0.20;;;16.60;99.90;;;;;;5072752;28;20204;-79
2022/09/10 06:08:34;;;;;;;0.20;0.20;;;16.60;99.90;;;;;;5075327;28;20584;-79
2022/09/10 06:11:09;;;;;;;0.20;0.20;;;16.50;99.90;;;;;;5073974;28;20744;-79
2022/09/10 06:13:38;;;;;;;0.37;0.30;;;16.60;99.90;;;;;;5076944;28;20615;-79
2022/09/10 06:16:07;;;;;;;0.20;0.20;;;16.60;99.90;;;;;;5074733;28;20217;-79
2022/09/10 06:18:33;;;;;;;0.20;0.20;;;16.60;99.90;;;;;;5076522;28;20761;-79
2022/09/10 06:21:11;;;;;;;0.57;0.20;;;16.60;99.90;;;;;;5074504;28;20184;-79
2022/09/10 06:23:38;;;;;;;0.63;0.37;;;16.50;99.90;;;;;;5074627;28;20189;-79
2022/09/10 06:26:10;;;;;;;0.30;0.30;;;16.70;99.90;;;;;;5076019;28;20920;-79
2022/09/10 06:28:36;;;;;;;0.27;0.23;;;16.80;99.90;;;;;;5074888;28;20208;-80
2022/09/10 06:31:07;;;;;;;0.20;0.20;;;16.90;99.90;;;;;;5074258;28;20227;-80
2022/09/10 06:33:33;;;;;;;0.30;0.30;;;16.90;99.90;;;;;;5074288;28;20580;-79
2022/09/10 06:36:03;;;;;;;0.20;0.20;;;16.90;99.90;;;;;;5074504;28;20186;-80
2022/09/10 06:38:35;;;;;;;0.43;0.43;;;16.80;99.90;;;;;;5076437;28;20661;-80
2022/09/10 06:41:04;;;;;;;0.27;0.27;;;16.80;99.90;;;;;;5077760;28;21238;-79
2022/09/10 06:43:35;;;;;;;0.20;0.20;;;16.80;99.90;;;;;;5073621;28;20196;-80
2022/09/10 06:46:08;;;;;;;0.20;0.20;;;16.70;99.90;;;;;;5072263;28;20560;-79
2022/09/10 06:48:38;;;;;;;0.37;0.37;;;16.70;99.90;;;;;;5074177;28;20678;-79
2022/09/10 06:51:06;;;;;;;0.27;0.27;;;16.80;99.90;;;;;;5075209;28;20291;-81
2022/09/10 06:53:36;;;;;;;0.20;0.20;;;16.90;99.90;;;;;;5069650;28;20176;-79
2022/09/10 06:56:04;;;;;;;0.20;0.20;;;16.90;99.90;;;;;;5073181;28;21305;-80
2022/09/10 06:58:34;;;;;;;0.30;0.30;;;16.90;99.90;;;;;;5074599;28;20225;-79
2022/09/10 07:01:11;;;;;;;0.83;0.40;;;16.90;99.90;;;;;;5075761;28;20184;-80
2022/09/10 07:03:41;;;;;;;0.30;0.30;;;16.90;99.90;;;;;;5073386;28;20188;-80
2022/09/10 07:06:12;;;;;;;0.20;0.20;;;17.00;99.90;;;;;;5074675;28;20199;-80
2022/09/10 07:08:39;;;;;;;0.17;0.17;;;17.00;99.90;;;;;;5073848;28;20215;-79
2022/09/10 07:11:19;;;;;;;0.17;0.17;;;17.10;99.90;;;;;;5075403;28;20185;-80
2022/09/10 07:13:50;;;;;;;0.20;0.20;;;17.10;99.90;;;;;;5073031;28;20180;-79
2022/09/10 07:16:24;;;;;;;0.20;0.20;;;17.20;99.90;;;;;;5075212;28;20176;-80
2022/09/10 07:18:55;;;;;;;0.20;0.20;;;17.40;99.90;;;;;;5072989;28;20252;-80
2022/09/10 07:21:24;;;;;;;0.20;0.20;;;17.50;99.90;;;;;;5072241;28;20201;-79
2022/09/10 07:23:57;;;;;;;0.53;0.43;;;17.50;99.90;;;;;;5072667;28;20213;-79
2022/09/10 07:26:24;;;;;;;0.20;0.20;;;17.60;99.90;;;;;;5074161;28;20188;-79
2022/09/10 07:28:51;;;;;;;0.27;0.27;;;17.80;99.90;;;;;;5069460;28;20238;-80
2022/09/10 07:31:28;;;;;;;0.30;0.30;;;18.00;99.90;;;;;;5070104;28;20203;-80
2022/09/10 07:33:59;;;;;;;0.10;0.10;;;18.10;99.90;;;;;;5072700;28;20189;-80
2022/09/10 07:36:27;;;;;;;0.87;0.20;;;18.20;99.90;;;;;;5073559;28;20985;-80
2022/09/10 07:38:54;;;;;;;1.60;1.07;;;18.20;99.90;;;;;;5071730;28;20185;-79
2022/09/10 07:41:21;;;;;;;0.23;0.23;;;18.40;99.90;;;;;;5072815;28;20635;-80
2022/09/10 07:43:54;;;;;;;4.47;0.23;;;18.60;99.90;;;;;;5074226;28;20180;-79
2022/09/10 07:46:21;;;;;;;0.20;0.20;;;18.90;99.90;;;;;;5073249;28;20241;-79
2022/09/10 07:48:51;;;;;;;0.20;0.20;;;19.10;99.90;;;;;;5079327;28;20810;-79
2022/09/10 07:51:18;;;;;;;0.10;0.10;;;19.30;99.90;;;;;;5077250;28;20208;-80
2022/09/10 07:53:45;;;;;;;0.30;0.30;;;19.50;99.90;;;;;;5079378;28;20191;-80
2022/09/10 07:56:14;;;;;;;0.17;0.17;;;19.60;99.90;;;;;;5076102;28;20188;-80
2022/09/10 07:58:39;;;;;;;0.20;0.20;;;19.50;99.90;;;;;;5073318;28;20188;-80
2022/09/10 08:01:13;;;;;;;0.30;0.30;;;19.30;99.90;;;;;;5078059;28;20211;-80
2022/09/10 08:03:42;;;;;;;0.40;0.40;;;19.30;99.90;;;;;;5092378;28;20225;-80
2022/09/10 08:06:11;;;;;;;1.60;0.40;;;19.20;99.90;;;;;;5076122;28;20197;-82
2022/09/10 08:08:38;;;;;;;0.20;0.20;;;19.10;99.90;;;;;;5074307;28;20695;-82
2022/09/10 08:11:16;;;;;;;0.40;0.20;;;19.00;99.90;;;;;;5075981;28;20271;-82
2022/09/10 08:13:46;;;;;;;0.33;0.20;;;18.90;99.90;;;;;;5072080;28;20188;-82
2022/09/10 08:16:18;;;;;;;0.10;0.10;;;18.90;99.90;;;;;;5073663;28;20185;-81
2022/09/10 08:18:48;;;;;;;0.33;0.23;;;18.80;99.90;;;;;;5078637;28;20242;-82
2022/09/10 08:21:16;;;;;;;0.10;0.10;;;18.90;99.90;;;;;;5076976;28;20281;-82
2022/09/10 08:23:47;;;;;;;0.20;0.20;;;19.00;99.90;;;;;;5077564;28;20199;-82
2022/09/10 08:26:13;;;;;;;0.20;0.20;;;19.20;99.90;;;;;;5074710;28;20192;-82
2022/09/10 08:28:42;;;;;;;0.10;0.10;;;19.30;99.90;;;;;;5075584;28;20258;-82
2022/09/10 08:31:11;;;;;;;0.20;0.20;;;19.40;99.90;;;;;;5076893;28;20196;-83
2022/09/10 08:33:38;;;;;;;0.23;0.23;;;19.30;99.90;;;;;;5074326;28;20188;-82
2022/09/10 08:36:07;;;;;;;0.10;0.10;;;19.10;99.90;;;;;;5074138;28;20184;-83
2022/09/10 08:38:35;;;;;;;0.20;0.20;;;19.20;99.90;;;;;;5075071;28;20192;-83
2022/09/10 08:41:13;;;;;;;0.20;0.20;;;19.10;99.90;;;;;;5074132;28;20268;-82
2022/09/10 08:44:08;;;;;;;0.97;0.40;;;19.00;99.90;;;;;;5075807;28;20555;-83
2022/09/10 08:47:13;;;;;;;0.10;0.10;;;18.90;99.90;;;;;;5069324;28;20579;-82
2022/09/10 08:49:51;;;;;;;0.60;0.40;;;18.80;99.90;;;;;;5071155;28;20201;-82
2022/09/10 08:52:20;;;;;;;0.40;0.40;;;18.70;99.90;;;;;;5070404;28;20197;-82
2022/09/10 08:55:04;;;;;;;0.20;0.20;;;18.80;99.90;;;;;;5074572;28;20234;-82
2022/09/10 08:57:33;;;;;;;0.33;0.33;;;18.90;99.90;;;;;;5072596;28;20181;-82
2022/09/10 09:00:01;;;;;;;0.10;0.10;;;19.00;99.90;;;;;;5075483;28;20253;-83
2022/09/10 09:02:58;;;;;;;0.20;0.20;;;19.10;99.90;;;;;;5076710;28;20714;-82
2022/09/10 09:05:25;;;;;;;0.20;0.20;;;19.20;99.90;;;;;;5060298;28;20271;-82
2022/09/10 09:07:51;;;;;;;0.27;0.27;;;19.20;99.90;;;;;;5072272;28;20208;-83
2022/09/10 09:10:27;;;;;;;0.20;0.20;;;19.20;99.90;;;;;;5074675;28;20547;-83
2022/09/10 09:13:18;;;;;;;0.23;0.23;;;19.30;99.90;;;;;;5072447;28;20192;-82
2022/09/10 09:16:09;;;;;;;0.30;0.30;;;19.30;99.90;;;;;;5072461;28;20192;-82
2022/09/10 09:19:25;;;;;;;2.63;0.60;;;19.20;99.90;;;;;;5077745;28;20614;-83
2022/09/10 09:22:23;;;;;;;0.50;0.30;;;19.10;99.90;;;;;;5031027;28;20228;-83
2022/09/10 09:24:54;;;;;;;0.50;0.33;;;18.90;99.90;;;;;;5036340;28;20250;-82
2022/09/10 09:27:20;;;;;;;0.83;0.83;;;18.80;99.90;;;;;;5075418;28;21724;-82
2022/09/10 09:29:55;;;;;;;0.40;0.40;;;18.50;99.90;;;;;;5075279;28;20211;-83
2022/09/10 09:32:22;;;;;;;0.13;0.13;;;18.40;99.90;;;;;;5073138;28;21641;-81
2022/09/10 09:35:03;;;;;;;0.10;0.10;;;18.40;99.90;;;;;;5075195;28;20181;-81
2022/09/10 09:37:30;;;;;;;0.20;0.20;;;18.40;99.90;;;;;;5074999;28;20177;-81
2022/09/10 09:40:04;;;;;;;0.30;0.30;;;18.30;99.90;;;;;;5073859;28;20176;-83
2022/09/10 09:43:16;;;;;;;0.30;0.30;;;18.20;99.90;;;;;;5073224;28;20198;-82
2022/09/10 09:45:46;;;;;;;1.33;0.33;;;18.10;99.90;;;;;;5074723;28;20260;-82
2022/09/10 09:48:14;;;;;;;0.10;0.10;;;18.10;99.90;;;;;;5074145;28;20215;-82
2022/09/10 09:50:45;;;;;;;0.20;0.20;;;18.10;99.90;;;;;;5074624;28;20188;-81
2022/09/10 09:53:24;;;;;;;0.20;0.20;;;18.20;99.90;;;;;;5073763;28;20879;-81
2022/09/10 09:56:03;;;;;;;0.50;0.50;;;18.20;99.90;;;;;;5070787;28;20586;-81
2022/09/10 09:58:32;;;;;;;0.10;0.10;;;18.20;99.90;;;;;;5075741;28;20295;-81
2022/09/10 10:01:08;;;;;;;0.20;0.20;;;18.30;99.90;;;;;;5074225;28;20268;-81
2022/09/10 10:03:57;;;;;;;0.20;0.20;;;18.40;99.90;;;;;;5074984;28;20184;-81
2022/09/10 10:06:46;;;;;;;0.23;0.23;;;18.50;99.90;;;;;;5092266;27;20184;-81
2022/09/10 10:09:37;;;;;;;0.20;0.20;;;18.50;99.90;;;;;;5087791;28;20246;-81
2022/09/10 10:12:07;;;;;;;0.20;0.20;;;18.40;99.90;;;;;;5070414;28;20766;-82
2022/09/10 10:14:42;;;;;;;0.40;0.20;;;18.30;99.90;;;;;;5073441;28;20173;-81
2022/09/10 10:17:30;;;;;;;0.10;0.10;;;18.30;99.90;;;;;;5069298;28;20184;-81
2022/09/10 10:19:59;;;;;;;0.13;0.13;;;18.40;99.90;;;;;;5074282;28;20173;-81
2022/09/10 10:22:29;;;;;;;0.23;0.23;;;18.30;99.90;;;;;;5073192;28;20204;-81
2022/09/10 10:24:55;;;;;;;0.10;0.10;;;18.40;99.90;;;;;;5073454;28;20188;-81
2022/09/10 10:27:31;;;;;;;0.30;0.30;;;18.50;99.90;;;;;;5072592;28;20181;-81
2022/09/10 10:30:22;;;;;;;0.20;0.20;;;18.60;99.90;;;;;;5076484;28;20179;-81
2022/09/10 10:32:59;;;;;;;2.13;0.47;;;18.80;99.90;;;;;;5072954;28;20278;-82
2022/09/10 10:36:02;;;;;;;0.10;0.10;;;19.00;99.90;;;;;;5073281;28;20191;-82
2022/09/10 10:38:38;;;;;;;0.20;0.20;;;19.30;99.90;;;;;;5073742;28;20186;-81
2022/09/10 10:41:42;;;;;;;0.20;0.20;;;19.60;99.90;;;;;;5072169;28;20559;-81
2022/09/10 10:44:33;;;;;;;0.20;0.20;;;19.70;99.90;;;;;;5072402;28;20215;-81
2022/09/10 10:47:31;;;;;;;0.10;0.10;;;19.80;99.90;;;;;;5071213;28;20182;-82
2022/09/10 10:50:22;;;;;;;0.10;0.10;;;20.10;99.90;;;;;;5073835;28;20242;-81
2022/09/10 10:52:51;;;;;;;0.20;0.20;;;20.30;99.90;;;;;;5072987;28;20199;-82
2022/09/10 10:55:23;;;;;;;5.33;0.20;;;20.70;99.90;;;;;;5073295;28;20234;-81
2022/09/10 10:57:59;;;;;;;0.17;0.17;;;21.40;99.90;;;;;;5079439;28;20178;-80
2022/09/10 11:00:27;;;;;;;0.20;0.20;;;21.60;99.90;;;;;;5070731;28;20188;-79
2022/09/10 11:03:17;;;;;;;0.13;0.13;;;21.40;99.90;;;;;;5071849;28;21065;-79
2022/09/10 11:06:00;;;;;;;0.10;0.10;;;21.50;99.90;;;;;;5071972;28;20649;-79
2022/09/10 11:08:43;;;;;;;0.10;0.10;;;21.80;99.90;;;;;;5073423;28;21200;-80
2022/09/10 11:11:17;;;;;;;0.10;0.10;;;21.80;99.90;;;;;;5074956;28;20208;-79
2022/09/10 11:14:15;;;;;;;0.33;0.33;;;22.00;99.90;;;;;;5069776;28;20180;-80
2022/09/10 11:16:48;;;;;;;0.13;0.13;;;22.10;99.90;;;;;;5080190;28;20204;-80
2022/09/10 11:19:35;;;;;;;0.20;0.20;;;21.70;99.90;;;;;;5073110;28;20939;-79
2022/09/10 11:22:23;;;;;;;0.10;0.10;;;21.40;99.90;;;;;;5073315;28;20204;-80
2022/09/10 11:24:58;;;;;;;0.20;0.20;;;21.40;99.90;;;;;;5073251;28;20176;-79
2022/09/10 11:27:37;;;;;;;0.10;0.10;;;21.30;99.90;;;;;;5069180;28;20203;-79
2022/09/10 11:30:08;;;;;;;0.17;0.17;;;20.90;99.90;;;;;;5073206;28;20544;-80
2022/09/10 11:32:47;;;;;;;0.10;0.10;;;20.70;99.90;;;;;;5076420;28;20204;-79
2022/09/10 11:35:36;;;;;;;0.27;0.20;;;20.70;99.90;;;;;;5069924;28;20184;-79
2022/09/10 11:38:11;;;;;;;0.20;0.20;;;20.80;99.90;;;;;;5069601;28;20659;-80
2022/09/10 11:41:08;;;;;;;0.20;0.20;;;20.70;99.90;;;;;;5073728;28;20225;-79
2022/09/10 11:43:48;;;;;;;0.10;0.10;;;20.70;99.90;;;;;;5068075;28;20189;-79
2022/09/10 11:46:36;;;;;;;0.20;0.20;;;20.90;99.90;;;;;;5086921;28;20267;-80
2022/09/10 11:49:19;;;;;;;0.50;0.20;;;20.80;99.90;;;;;;5072144;28;20194;-80
2022/09/10 11:51:48;;;;;;;0.10;0.10;;;20.80;99.90;;;;;;5073593;28;20200;-80
2022/09/10 11:54:27;;;;;;;0.40;0.40;;;20.70;99.90;;;;;;5072628;28;20216;-79
2022/09/10 11:57:15;;;;;;;0.30;0.30;;;20.90;99.90;;;;;;5071439;28;20242;-80
2022/09/10 12:00:01;;;;;;;0.13;0.13;;;20.90;99.90;;;;;;5070286;28;20184;-79
2022/09/10 12:02:39;;;;;;;0.20;0.20;;;20.90;99.90;;;;;;5071451;28;20205;-80
2022/09/10 12:05:34;;;;;;;0.20;0.20;;;20.90;99.90;;;;;;5071529;28;20207;-80
2022/09/10 12:08:13;;;;;;;0.37;0.23;;;20.90;99.90;;;;;;5073065;28;20213;-80
2022/09/10 12:11:23;;;;;;;0.10;0.10;;;21.40;99.90;;;;;;5073244;28;20237;-79
2022/09/10 12:13:52;;;;;;;1.10;0.30;;;21.80;99.90;;;;;;4983628;28;20184;-79
2022/09/10 12:16:27;;;;;;;0.20;0.20;;;21.60;99.90;;;;;;5063340;28;20246;-79
2022/09/10 12:18:56;;;;;;;0.20;0.20;;;21.40;99.90;;;;;;5072590;28;20402;-79
2022/09/10 12:21:42;;;;;;;0.20;0.20;;;21.40;99.90;;;;;;5071175;28;20216;-79
2022/09/10 12:24:25;;;;;;;0.10;0.10;;;21.40;99.90;;;;;;5075497;28;20267;-79
2022/09/10 12:26:52;;;;;;;0.43;0.43;;;21.40;99.90;;;;;;5071010;28;20216;-80
2022/09/10 12:29:33;;;;;;;0.20;0.20;;;21.30;99.90;;;;;;5070619;28;20220;-79
2022/09/10 12:32:22;;;;;;;0.60;0.20;;;21.40;99.90;;;;;;5073021;28;20192;-80
2022/09/10 12:35:26;;;;;;;0.20;0.20;;;21.30;99.90;;;;;;5064574;28;20185;-79
2022/09/10 12:38:31;;;;;;;0.13;0.13;;;21.20;99.90;;;;;;5074617;28;20176;-79
2022/09/10 12:40:57;;;;;;;0.60;0.60;;;21.40;99.90;;;;;;5060164;28;20184;-80
2022/09/10 12:43:39;;;;;;;0.27;0.27;;;21.40;99.90;;;;;;5060921;28;20209;-80
2022/09/10 12:46:13;;;;;;;0.27;0.27;;;21.50;99.90;;;;;;5060240;28;20185;-80
2022/09/10 12:48:47;;;;;;;0.20;0.20;;;22.10;99.90;;;;;;5065409;28;20559;-80
2022/09/10 12:51:23;;;;;;;0.30;0.30;;;22.60;99.90;;;;;;5076201;28;20203;-80
2022/09/10 12:54:17;;;;;;;0.40;0.40;;;23.10;99.90;;;;;;5073393;28;20173;-80
2022/09/10 12:56:55;;;;;;;1.60;0.30;;;23.30;99.90;;;;;;5073708;28;20177;-79
2022/09/10 12:59:50;;;;;;;0.20;0.20;;;23.10;99.90;;;;;;5073907;28;20192;-80
2022/09/10 13:02:34;;;;;;;0.10;0.10;;;23.00;99.90;;;;;;5078192;28;20232;-80
2022/09/10 13:05:16;;;;;;;0.10;0.10;;;22.50;99.90;;;;;;5074847;28;20180;-80
2022/09/10 13:07:44;;;;;;;0.20;0.20;;;22.50;99.90;;;;;;5072847;28;20258;-79
2022/09/10 13:10:18;;;;;;;0.10;0.10;;;22.60;99.90;;;;;;5076239;28;20176;-80
2022/09/10 13:12:46;;;;;;;0.20;0.20;;;22.70;99.90;;;;;;5075664;28;20216;-80
2022/09/10 13:15:19;;;;;;;0.10;0.10;;;22.90;99.90;;;;;;5074210;28;20181;-79
2022/09/10 13:17:48;;;;;;;0.10;0.10;;;23.10;99.90;;;;;;5074677;28;20250;-79
2022/09/10 13:20:20;;;;;;;2.57;0.20;;;23.20;99.90;;;;;;5074988;28;20275;-79